Capitol Logistics 3273


MYGF
Grand Bahama International Airport
Freeport, BS
MYNN
Lynden Pindling International Airport
Nassau, BS

Activity Log

Date Flight Route Aircraft Duration
11/05/2019 CPX673 ZFP BR65V ZQA SF34 0h 56m
10/11/2019 CPX673 ZFP BR65V ZQA SF34 0h 47m
09/14/2019 CPX673 ZFP BR65V ZQA SF34 0h 36m
06/27/2019 CPX673 ZFP BR65V ZQA SF34 0h 38m
06/25/2019 CPX673 ZFP BR65V ZQA SF34 0h 45m

Route Details

Aircraft Information
Primary: Saab 340AF
Backup: Not Available
Route Data
Distance: 113nm
Sched. Duration: 2h 00m
Avg. Duration: 0h 44m (-156m)
Times Flown: 5
Recm'd Route: ZFP BR65V ZQA
Planned Altitude: 15,000ft
Origin Wx: MYGF 271700Z 36019KT 9999 SCT030 BKN040 20/15 A3010
Dest. Wx: MYNN 271700Z 34009KT 9999 BKN040 26/19 A3006
Notes:

Financial History
Total Freight: 31,620lbs
Average Load: 6,324lbs/flt
Fuel Used: 3,360lbs
Avg. Fuel Used: 672lbs/flt
Fuel Expense: $3,058
Avg. Fuel Expense: $612
Avg. Fuel Cost: $0.91/lbs
Total Gross Income: $35,414
Pilot Pay: $1,065
Total Expenses: $4,085
Total Revenue: $27,388
Average Revenue: $7,082.88